Terminal Aerodrome Forecast
Issued by NWS Louisville, KY

Home | Current Version | Previous Version | Text Only | Print | Product List | Glossary On
Versions: 1 2 3 4 5 6 7 8 9 10 11 12 13 14 15 16 17 18 19
000
FTUS43 KLMK 010500
TAFLEX
TAF
KLEX 010523Z 0106/0206 22005KT 5SM BR FEW060 BKN100
     FM010800 VRB03KT 3SM BR FEW015 BKN040
      TEMPO 0110/0114 2SM BR BKN015
     FM011400 25007KT P6SM SCT015 BKN040
     FM012100 25006KT P6SM VCTS BKN040CB=

USA.gov is the U.S. government's official web portal to all federal, state and local government web resources and services.